Terminal Aerodrome Forecast
Issued by NWS

Current Version | Previous Version | Text Only | Print | Product List | Glossary On
Versions: 1 2 3 4 5 6 7 8 9 10 11 12 13
914
FTUS44 KLZK 191132
TAFBPK
TAF
KBPK 191132Z 1912/2012 VRB04KT P6SM SKC
     FM191500 19009KT P6SM VCSH BKN050
     FM200100 18005KT P6SM SCT100 BKN250=

USA.gov is the U.S. government's official web portal to all federal, state and local government web resources and services.